sensor_id;sensor_type;location;lat;lon;timestamp;pressure;altitude;pressure_sealevel;temperature;humidity
22662;BME280;11497;52.222;21.246;2022-09-03T00:00:38;100971.41;;;7.46;84.07
22662;BME280;11497;52.222;21.246;2022-09-03T00:06:10;100970.50;;;7.50;84.04
22662;BME280;11497;52.222;21.246;2022-09-03T00:09:28;100973.75;;;7.71;83.61
22662;BME280;11497;52.222;21.246;2022-09-03T00:11:56;100971.06;;;7.78;82.60
22662;BME280;11497;52.222;21.246;2022-09-03T00:14:57;100963.00;;;7.95;81.48
22662;BME280;11497;52.222;21.246;2022-09-03T00:17:37;100975.50;;;7.68;81.30
22662;BME280;11497;52.222;21.246;2022-09-03T00:20:12;100973.97;;;7.52;81.73
22662;BME280;11497;52.222;21.246;2022-09-03T00:22:48;100974.88;;;7.48;81.80
22662;BME280;11497;52.222;21.246;2022-09-03T00:25:24;100973.91;;;7.55;81.83
22662;BME280;11497;52.222;21.246;2022-09-03T00:27:56;100969.72;;;7.42;81.78
22662;BME280;11497;52.222;21.246;2022-09-03T00:30:25;100972.25;;;7.48;81.77
22662;BME280;11497;52.222;21.246;2022-09-03T00:33:05;100975.72;;;7.50;81.88
22662;BME280;11497;52.222;21.246;2022-09-03T00:35:47;100965.97;;;7.66;81.38
22662;BME280;11497;52.222;21.246;2022-09-03T00:38:18;100979.81;;;7.71;80.97
22662;BME280;11497;52.222;21.246;2022-09-03T01:00:14;100973.38;;;7.27;80.97
22662;BME280;11497;52.222;21.246;2022-09-03T01:02:49;100977.69;;;7.30;80.99
22662;BME280;11497;52.222;21.246;2022-09-03T01:17:15;100977.13;;;6.96;82.20
22662;BME280;11497;52.222;21.246;2022-09-03T01:22:38;100974.59;;;6.91;82.59
22662;BME280;11497;52.222;21.246;2022-09-03T01:37:12;100974.66;;;6.85;83.32
22662;BME280;11497;52.222;21.246;2022-09-03T01:48:51;100980.06;;;6.58;83.76
22662;BME280;11497;52.222;21.246;2022-09-03T01:51:27;100985.28;;;6.58;84.28
22662;BME280;11497;52.222;21.246;2022-09-03T02:00:11;100973.88;;;6.74;84.05
22662;BME280;11497;52.222;21.246;2022-09-03T02:02:43;100976.50;;;6.71;83.69
22662;BME280;11497;52.222;21.246;2022-09-03T02:05:21;100973.09;;;6.63;84.14
22662;BME280;11497;52.222;21.246;2022-09-03T02:08:03;100969.59;;;6.67;84.11
22662;BME280;11497;52.222;21.246;2022-09-03T02:13:09;100963.59;;;6.57;84.12
22662;BME280;11497;52.222;21.246;2022-09-03T02:15:40;100963.59;;;6.59;84.43
22662;BME280;11497;52.222;21.246;2022-09-03T02:18:35;100958.44;;;6.51;84.31
22662;BME280;11497;52.222;21.246;2022-09-03T02:21:05;100961.03;;;6.53;84.63
22662;BME280;11497;52.222;21.246;2022-09-03T02:23:33;100960.03;;;6.69;84.61
22662;BME280;11497;52.222;21.246;2022-09-03T02:26:02;100958.41;;;6.54;84.03
22662;BME280;11497;52.222;21.246;2022-09-03T02:28:31;100954.06;;;6.58;84.25
22662;BME280;11497;52.222;21.246;2022-09-03T02:30:59;100944.47;;;6.64;83.93
22662;BME280;11497;52.222;21.246;2022-09-03T02:33:28;100947.13;;;6.57;84.02
22662;BME280;11497;52.222;21.246;2022-09-03T02:35:56;100952.25;;;6.69;84.31
22662;BME280;11497;52.222;21.246;2022-09-03T02:38:25;100954.88;;;6.63;83.99
22662;BME280;11497;52.222;21.246;2022-09-03T02:40:53;100953.09;;;6.70;83.71
22662;BME280;11497;52.222;21.246;2022-09-03T02:43:23;100957.53;;;6.57;83.76
22662;BME280;11497;52.222;21.246;2022-09-03T02:45:58;100955.78;;;6.59;83.62
22662;BME280;11497;52.222;21.246;2022-09-03T02:48:28;100960.13;;;6.60;83.87
22662;BME280;11497;52.222;21.246;2022-09-03T02:50:56;100965.38;;;6.52;83.80
22662;BME280;11497;52.222;21.246;2022-09-03T02:53:24;100958.50;;;6.48;83.73
22662;BME280;11497;52.222;21.246;2022-09-03T02:56:01;100963.75;;;6.42;83.92
22662;BME280;11497;52.222;21.246;2022-09-03T02:58:29;100957.66;;;6.45;83.86
22662;BME280;11497;52.222;21.246;2022-09-03T03:01:00;100955.03;;;6.46;84.01
22662;BME280;11497;52.222;21.246;2022-09-03T03:03:29;100950.75;;;6.41;84.04
22662;BME280;11497;52.222;21.246;2022-09-03T03:06:02;100949.06;;;6.33;84.11
22662;BME280;11497;52.222;21.246;2022-09-03T03:08:30;100951.63;;;6.38;83.84
22662;BME280;11497;52.222;21.246;2022-09-03T03:10:59;100956.00;;;6.31;84.32
22662;BME280;11497;52.222;21.246;2022-09-03T03:13:29;100944.78;;;6.28;84.42
22662;BME280;11497;52.222;21.246;2022-09-03T03:16:03;100953.44;;;6.28;84.45
22662;BME280;11497;52.222;21.246;2022-09-03T03:18:34;100952.59;;;6.23;84.29
22662;BME280;11497;52.222;21.246;2022-09-03T03:21:06;100962.13;;;6.24;84.53
22662;BME280;11497;52.222;21.246;2022-09-03T03:23:35;100955.16;;;6.29;84.69
22662;BME280;11497;52.222;21.246;2022-09-03T03:26:06;100959.47;;;6.30;84.38
22662;BME280;11497;52.222;21.246;2022-09-03T03:28:35;100958.66;;;6.24;84.58
22662;BME280;11497;52.222;21.246;2022-09-03T03:31:07;100961.25;;;6.24;84.78
22662;BME280;11497;52.222;21.246;2022-09-03T03:33:37;100956.09;;;6.19;84.81
22662;BME280;11497;52.222;21.246;2022-09-03T03:36:13;100957.81;;;6.20;85.07
22662;BME280;11497;52.222;21.246;2022-09-03T03:38:43;100965.66;;;6.14;85.22
22662;BME280;11497;52.222;21.246;2022-09-03T03:41:15;100964.84;;;6.06;85.19
22662;BME280;11497;52.222;21.246;2022-09-03T03:43:44;100965.72;;;6.02;85.04
22662;BME280;11497;52.222;21.246;2022-09-03T03:46:12;100973.53;;;6.00;85.52
22662;BME280;11497;52.222;21.246;2022-09-03T03:48:41;100970.06;;;6.03;84.83
22662;BME280;11497;52.222;21.246;2022-09-03T03:51:10;100970.06;;;6.06;84.93
22662;BME280;11497;52.222;21.246;2022-09-03T03:53:38;100976.16;;;5.96;85.06
22662;BME280;11497;52.222;21.246;2022-09-03T03:56:08;100968.34;;;5.99;85.45
22662;BME280;11497;52.222;21.246;2022-09-03T03:58:37;100966.50;;;6.13;85.26
22662;BME280;11497;52.222;21.246;2022-09-03T04:01:14;100975.97;;;6.28;85.34
22662;BME280;11497;52.222;21.246;2022-09-03T04:03:44;100969.88;;;6.30;84.88
22662;BME280;11497;52.222;21.246;2022-09-03T04:06:13;100976.00;;;6.22;84.97
22662;BME280;11497;52.222;21.246;2022-09-03T04:08:43;100983.78;;;6.23;84.91
22662;BME280;11497;52.222;21.246;2022-09-03T04:11:16;100980.31;;;6.21;84.75
22662;BME280;11497;52.222;21.246;2022-09-03T04:13:45;100982.06;;;6.19;84.91
22662;BME280;11497;52.222;21.246;2022-09-03T04:16:21;100976.81;;;6.31;85.02
22662;BME280;11497;52.222;21.246;2022-09-03T04:18:50;100983.59;;;6.51;84.17
22662;BME280;11497;52.222;21.246;2022-09-03T04:21:20;100985.28;;;6.58;83.50
22662;BME280;11497;52.222;21.246;2022-09-03T04:23:50;100979.19;;;6.62;83.09
22662;BME280;11497;52.222;21.246;2022-09-03T04:26:24;100983.47;;;6.69;82.74
22662;BME280;11497;52.222;21.246;2022-09-03T04:28:52;100990.44;;;6.61;82.45
22662;BME280;11497;52.222;21.246;2022-09-03T04:31:20;100997.38;;;6.62;82.77
22662;BME280;11497;52.222;21.246;2022-09-03T04:33:49;100996.56;;;6.54;82.59
22662;BME280;11497;52.222;21.246;2022-09-03T04:36:23;100999.25;;;6.45;83.12
22662;BME280;11497;52.222;21.246;2022-09-03T04:38:53;100998.38;;;6.46;83.46
22662;BME280;11497;52.222;21.246;2022-09-03T04:41:24;100998.25;;;6.62;83.38
22662;BME280;11497;52.222;21.246;2022-09-03T04:43:53;101000.69;;;6.82;82.65
22662;BME280;11497;52.222;21.246;2022-09-03T04:46:24;101005.00;;;6.88;82.30
22662;BME280;11497;52.222;21.246;2022-09-03T04:48:53;100998.03;;;6.91;82.14
22662;BME280;11497;52.222;21.246;2022-09-03T04:51:24;100993.56;;;7.03;82.17
22662;BME280;11497;52.222;21.246;2022-09-03T04:53:56;101002.09;;;7.20;81.81
22662;BME280;11497;52.222;21.246;2022-09-03T04:56:27;100996.78;;;7.29;81.34
22662;BME280;11497;52.222;21.246;2022-09-03T04:58:58;101004.06;;;7.78;80.50
22662;BME280;11497;52.222;21.246;2022-09-03T05:01:30;101002.94;;;11.13;76.59
22662;BME280;11497;52.222;21.246;2022-09-03T05:03:59;100995.34;;;14.05;66.35
22662;BME280;11497;52.222;21.246;2022-09-03T05:06:29;100995.22;;;13.61;60.92
22662;BME280;11497;52.222;21.246;2022-09-03T05:08:58;100997.59;;;11.81;61.40
22662;BME280;11497;52.222;21.246;2022-09-03T05:11:28;101001.94;;;11.82;62.15
22662;BME280;11497;52.222;21.246;2022-09-03T05:13:57;100999.50;;;11.43;62.29
22662;BME280;11497;52.222;21.246;2022-09-03T05:16:26;100998.56;;;10.79;62.94
22662;BME280;11497;52.222;21.246;2022-09-03T05:18:58;101001.78;;;10.53;63.60
22662;BME280;11497;52.222;21.246;2022-09-03T05:21:26;101004.19;;;10.25;64.68
22662;BME280;11497;52.222;21.246;2022-09-03T05:23:55;101009.16;;;9.96;65.78
22662;BME280;11497;52.222;21.246;2022-09-03T05:26:26;101008.22;;;9.97;66.13
22662;BME280;11497;52.222;21.246;2022-09-03T05:28:58;101017.13;;;9.90;66.84
22662;BME280;11497;52.222;21.246;2022-09-03T05:31:28;101016.84;;;10.02;67.07
22662;BME280;11497;52.222;21.246;2022-09-03T05:34:00;101010.06;;;10.72;66.79
22662;BME280;11497;52.222;21.246;2022-09-03T05:36:31;101015.25;;;10.75;65.51
22662;BME280;11497;52.222;21.246;2022-09-03T05:39:00;101014.94;;;10.50;66.15
22662;BME280;11497;52.222;21.246;2022-09-03T05:41:29;101013.16;;;10.52;66.11
22662;BME280;11497;52.222;21.246;2022-09-03T05:43:57;101012.38;;;10.47;66.82
22662;BME280;11497;52.222;21.246;2022-09-03T05:46:30;101014.28;;;10.41;66.63
22662;BME280;11497;52.222;21.246;2022-09-03T05:49:04;101019.81;;;10.65;66.79
22662;BME280;11497;52.222;21.246;2022-09-03T05:51:33;101012.09;;;11.29;65.85
22662;BME280;11497;52.222;21.246;2022-09-03T05:54:02;101014.09;;;11.21;65.29
22662;BME280;11497;52.222;21.246;2022-09-03T05:56:31;101003.78;;;11.46;64.58
22662;BME280;11497;52.222;21.246;2022-09-03T05:59:01;101014.09;;;11.21;64.59
22662;BME280;11497;52.222;21.246;2022-09-03T06:01:40;101013.09;;;11.25;64.66
22662;BME280;11497;52.222;21.246;2022-09-03T06:04:17;101013.91;;;11.27;64.58
22662;BME280;11497;52.222;21.246;2022-09-03T06:06:47;101010.59;;;11.53;63.71
22662;BME280;11497;52.222;21.246;2022-09-03T06:09:23;101004.50;;;11.52;63.78
22662;BME280;11497;52.222;21.246;2022-09-03T06:11:52;101011.56;;;11.81;63.25
22662;BME280;11497;52.222;21.246;2022-09-03T06:14:23;101012.09;;;11.94;62.42
22662;BME280;11497;52.222;21.246;2022-09-03T06:16:51;101008.38;;;12.01;62.12
22662;BME280;11497;52.222;21.246;2022-09-03T06:19:20;101012.78;;;12.28;62.03
22662;BME280;11497;52.222;21.246;2022-09-03T06:21:48;101012.34;;;12.70;61.83
22662;BME280;11497;52.222;21.246;2022-09-03T06:24:18;101007.50;;;13.11;60.53
22662;BME280;11497;52.222;21.246;2022-09-03T06:26:47;101006.88;;;13.03;59.56
22662;BME280;11497;52.222;21.246;2022-09-03T06:29:15;101007.00;;;12.99;59.60
22662;BME280;11497;52.222;21.246;2022-09-03T06:31:46;101002.22;;;13.11;59.51
22662;BME280;11497;52.222;21.246;2022-09-03T06:34:15;101004.38;;;13.26;59.15
22662;BME280;11497;52.222;21.246;2022-09-03T06:36:45;100998.59;;;13.41;58.99
22662;BME280;11497;52.222;21.246;2022-09-03T06:39:12;101003.59;;;13.47;58.19
22662;BME280;11497;52.222;21.246;2022-09-03T06:41:40;101002.69;;;13.48;58.22
22662;BME280;11497;52.222;21.246;2022-09-03T06:44:09;101002.25;;;13.60;57.42
22662;BME280;11497;52.222;21.246;2022-09-03T06:46:40;101008.63;;;13.78;56.96
22662;BME280;11497;52.222;21.246;2022-09-03T06:49:11;101011.06;;;13.84;56.52
22662;BME280;11497;52.222;21.246;2022-09-03T06:51:39;101007.66;;;13.81;56.67
22662;BME280;11497;52.222;21.246;2022-09-03T06:54:09;101006.84;;;14.02;55.88
22662;BME280;11497;52.222;21.246;2022-09-03T06:56:39;101009.16;;;14.11;55.70
22662;BME280;11497;52.222;21.246;2022-09-03T06:59:13;101007.25;;;14.15;56.03
22662;BME280;11497;52.222;21.246;2022-09-03T07:01:42;101012.91;;;14.27;55.96
22662;BME280;11497;52.222;21.246;2022-09-03T07:04:14;101009.09;;;14.35;56.00
22662;BME280;11497;52.222;21.246;2022-09-03T07:06:47;101010.13;;;14.54;54.77
22662;BME280;11497;52.222;21.246;2022-09-03T07:09:15;101007.81;;;14.68;53.84
22662;BME280;11497;52.222;21.246;2022-09-03T07:11:45;101008.63;;;14.90;53.32
22662;BME280;11497;52.222;21.246;2022-09-03T07:14:19;101011.06;;;15.57;52.91
22662;BME280;11497;52.222;21.246;2022-09-03T07:16:49;101005.25;;;16.07;50.49
22662;BME280;11497;52.222;21.246;2022-09-03T07:19:17;101011.13;;;16.87;49.40
22662;BME280;11497;52.222;21.246;2022-09-03T07:21:45;101015.03;;;17.15;47.71
22662;BME280;11497;52.222;21.246;2022-09-03T07:24:18;101014.72;;;17.04;47.76
22662;BME280;11497;52.222;21.246;2022-09-03T07:26:49;101009.13;;;17.27;46.83
22662;BME280;11497;52.222;21.246;2022-09-03T07:29:17;101009.94;;;17.45;46.35
22662;BME280;11497;52.222;21.246;2022-09-03T07:31:49;101014.84;;;17.70;45.51
22662;BME280;11497;52.222;21.246;2022-09-03T07:34:19;101019.59;;;17.96;45.43
22662;BME280;11497;52.222;21.246;2022-09-03T07:36:49;101019.53;;;18.13;44.32
22662;BME280;11497;52.222;21.246;2022-09-03T07:39:18;101029.63;;;19.45;43.14
22662;BME280;11497;52.222;21.246;2022-09-03T07:41:47;101030.09;;;22.45;39.66
22662;BME280;11497;52.222;21.246;2022-09-03T07:44:16;101025.50;;;25.18;36.15
22662;BME280;11497;52.222;21.246;2022-09-03T07:46:49;101028.19;;;27.47;31.17
22662;BME280;11497;52.222;21.246;2022-09-03T07:49:19;101026.03;;;29.33;28.39
22662;BME280;11497;52.222;21.246;2022-09-03T07:51:48;101029.47;;;30.96;25.40
22662;BME280;11497;52.222;21.246;2022-09-03T07:54:19;101028.25;;;31.71;24.48
22662;BME280;11497;52.222;21.246;2022-09-03T07:56:48;101024.09;;;32.47;23.17
22662;BME280;11497;52.222;21.246;2022-09-03T07:59:16;101016.63;;;33.41;21.56
22662;BME280;11497;52.222;21.246;2022-09-03T08:01:44;101023.50;;;33.66;21.17
22662;BME280;11497;52.222;21.246;2022-09-03T08:04:11;101018.78;;;34.69;19.86
22662;BME280;11497;52.222;21.246;2022-09-03T08:06:40;101029.44;;;35.84;18.54
22662;BME280;11497;52.222;21.246;2022-09-03T08:09:11;101028.00;;;36.29;18.17
22662;BME280;11497;52.222;21.246;2022-09-03T08:11:41;101017.66;;;36.86;17.36
22662;BME280;11497;52.222;21.246;2022-09-03T08:14:11;101028.94;;;36.70;16.35
22662;BME280;11497;52.222;21.246;2022-09-03T08:16:44;101038.34;;;36.06;15.81
22662;BME280;11497;52.222;21.246;2022-09-03T08:19:17;101031.81;;;36.48;15.44
22662;BME280;11497;52.222;21.246;2022-09-03T08:21:45;101026.34;;;36.35;15.61
22662;BME280;11497;52.222;21.246;2022-09-03T08:24:17;101022.72;;;37.02;15.03
22662;BME280;11497;52.222;21.246;2022-09-03T08:26:48;101023.56;;;37.09;15.08
22662;BME280;11497;52.222;21.246;2022-09-03T08:29:20;101018.00;;;38.02;14.26
22662;BME280;11497;52.222;21.246;2022-09-03T08:31:48;101018.41;;;38.05;14.21
22662;BME280;11497;52.222;21.246;2022-09-03T08:34:17;101022.28;;;37.58;14.30
22662;BME280;11497;52.222;21.246;2022-09-03T08:36:45;101013.22;;;37.77;14.09
22662;BME280;11497;52.222;21.246;2022-09-03T08:39:14;101017.91;;;37.50;13.88
22662;BME280;11497;52.222;21.246;2022-09-03T08:41:47;101010.81;;;38.14;13.41
22662;BME280;11497;52.222;21.246;2022-09-03T08:44:38;101007.72;;;37.90;13.32
22662;BME280;11497;52.222;21.246;2022-09-03T08:47:47;101012.97;;;37.99;12.99
22662;BME280;11497;52.222;21.246;2022-09-03T08:50:31;101010.69;;;37.82;13.19
22662;BME280;11497;52.222;21.246;2022-09-03T08:53:22;101005.06;;;37.57;13.19
22662;BME280;11497;52.222;21.246;2022-09-03T08:56:11;101001.91;;;37.54;12.48
22662;BME280;11497;52.222;21.246;2022-09-03T08:58:41;101000.84;;;37.75;12.47
22662;BME280;11497;52.222;21.246;2022-09-03T09:09:24;100991.84;;;36.95;12.95
22662;BME280;11497;52.222;21.246;2022-09-03T09:20:41;100986.81;;;36.85;12.70
22662;BME280;11497;52.222;21.246;2022-09-03T09:23:29;100982.13;;;36.53;12.76
22662;BME280;11497;52.222;21.246;2022-09-03T09:26:05;100979.47;;;36.92;12.48
22662;BME280;11497;52.222;21.246;2022-09-03T09:28:35;100985.97;;;36.85;12.62
22662;BME280;11497;52.222;21.246;2022-09-03T09:31:06;100978.78;;;36.57;12.73
22662;BME280;11497;52.222;21.246;2022-09-03T09:33:37;100979.06;;;36.76;12.64
22662;BME280;11497;52.222;21.246;2022-09-03T09:36:10;100972.03;;;36.47;12.49
22662;BME280;11497;52.222;21.246;2022-09-03T09:38:42;100985.72;;;36.73;13.25
22662;BME280;11497;52.222;21.246;2022-09-03T09:41:16;100980.66;;;36.50;13.20
22662;BME280;11497;52.222;21.246;2022-09-03T09:44:02;100981.50;;;36.57;13.49
22662;BME280;11497;52.222;21.246;2022-09-03T09:46:37;100978.81;;;36.10;13.32
22662;BME280;11497;52.222;21.246;2022-09-03T09:49:33;100984.06;;;35.70;13.04
22662;BME280;11497;52.222;21.246;2022-09-03T09:52:09;100984.31;;;35.75;13.16
22662;BME280;11497;52.222;21.246;2022-09-03T09:54:42;100972.94;;;35.65;13.84
22662;BME280;11497;52.222;21.246;2022-09-03T09:57:17;100973.84;;;36.20;13.12
22662;BME280;11497;52.222;21.246;2022-09-03T09:59:49;100978.47;;;35.44;13.21
22662;BME280;11497;52.222;21.246;2022-09-03T10:02:26;100970.56;;;35.49;13.45
22662;BME280;11497;52.222;21.246;2022-09-03T10:05:11;100976.94;;;35.69;13.75
22662;BME280;11497;52.222;21.246;2022-09-03T10:07:39;100967.09;;;34.63;13.59
22662;BME280;11497;52.222;21.246;2022-09-03T10:10:14;100966.38;;;34.97;13.86
22662;BME280;11497;52.222;21.246;2022-09-03T10:12:52;100970.16;;;34.39;13.98
22662;BME280;11497;52.222;21.246;2022-09-03T10:15:46;100970.97;;;34.03;14.30
22662;BME280;11497;52.222;21.246;2022-09-03T10:26:19;100954.28;;;27.71;18.53
22662;BME280;11497;52.222;21.246;2022-09-03T10:29:05;100951.31;;;26.79;19.85
22662;BME280;11497;52.222;21.246;2022-09-03T10:34:46;100951.53;;;25.47;21.47
22662;BME280;11497;52.222;21.246;2022-09-03T10:37:50;100949.94;;;24.82;22.33
22662;BME280;11497;52.222;21.246;2022-09-03T10:43:08;100942.50;;;24.22;23.35
22662;BME280;11497;52.222;21.246;2022-09-03T10:45:52;100941.91;;;24.07;23.46
22662;BME280;11497;52.222;21.246;2022-09-03T10:51:48;100937.31;;;23.53;24.11
22662;BME280;11497;52.222;21.246;2022-09-03T11:02:30;100924.75;;;23.20;24.81
22662;BME280;11497;52.222;21.246;2022-09-03T11:05:16;100921.22;;;23.09;24.82
22662;BME280;11497;52.222;21.246;2022-09-03T11:08:04;100934.19;;;22.91;24.85
22662;BME280;11497;52.222;21.246;2022-09-03T11:10:37;100931.63;;;22.89;24.89
22662;BME280;11497;52.222;21.246;2022-09-03T11:13:09;100925.56;;;22.87;25.11
22662;BME280;11497;52.222;21.246;2022-09-03T11:15:59;100917.53;;;22.99;24.40
22662;BME280;11497;52.222;21.246;2022-09-03T11:21:21;100918.00;;;22.81;24.89
22662;BME280;11497;52.222;21.246;2022-09-03T11:26:33;100905.09;;;22.75;25.96
22662;BME280;11497;52.222;21.246;2022-09-03T11:29:16;100910.72;;;22.83;25.96
22662;BME280;11497;52.222;21.246;2022-09-03T11:32:02;100902.97;;;22.80;26.14
22662;BME280;11497;52.222;21.246;2022-09-03T11:34:52;100900.91;;;22.84;26.25
22662;BME280;11497;52.222;21.246;2022-09-03T11:37:25;100900.56;;;23.00;26.20
22662;BME280;11497;52.222;21.246;2022-09-03T11:40:03;100898.38;;;23.05;25.69
22662;BME280;11497;52.222;21.246;2022-09-03T11:42:41;100910.03;;;22.93;26.06
22662;BME280;11497;52.222;21.246;2022-09-03T11:47:58;100901.31;;;23.13;26.04
22662;BME280;11497;52.222;21.246;2022-09-03T11:50:29;100905.94;;;23.11;25.71
22662;BME280;11497;52.222;21.246;2022-09-03T11:53:09;100896.81;;;22.91;25.56
22662;BME280;11497;52.222;21.246;2022-09-03T11:56:00;100901.53;;;22.99;26.04
22662;BME280;11497;52.222;21.246;2022-09-03T11:58:36;100893.88;;;22.83;25.05
22662;BME280;11497;52.222;21.246;2022-09-03T12:01:14;100896.88;;;22.78;26.00
22662;BME280;11497;52.222;21.246;2022-09-03T12:04:02;100887.69;;;22.82;26.48
22662;BME280;11497;52.222;21.246;2022-09-03T12:12:58;100885.31;;;23.13;25.86
22662;BME280;11497;52.222;21.246;2022-09-03T12:18:30;100875.47;;;23.13;26.05
22662;BME280;11497;52.222;21.246;2022-09-03T12:25:54;100873.16;;;23.42;25.78
22662;BME280;11497;52.222;21.246;2022-09-03T12:28:24;100867.38;;;23.37;25.44
22662;BME280;11497;52.222;21.246;2022-09-03T12:31:13;100853.28;;;23.35;25.89
22662;BME280;11497;52.222;21.246;2022-09-03T12:36:21;100854.97;;;23.25;25.43
22662;BME280;11497;52.222;21.246;2022-09-03T12:38:50;100862.13;;;23.13;25.59
22662;BME280;11497;52.222;21.246;2022-09-03T12:41:50;100862.00;;;23.15;25.85
22662;BME280;11497;52.222;21.246;2022-09-03T12:44:29;100847.06;;;23.12;25.19
22662;BME280;11497;52.222;21.246;2022-09-03T12:47:22;100844.88;;;23.17;24.94
22662;BME280;11497;52.222;21.246;2022-09-03T12:50:08;100845.97;;;23.15;25.14
22662;BME280;11497;52.222;21.246;2022-09-03T12:52:43;100839.06;;;23.23;25.24
22662;BME280;11497;52.222;21.246;2022-09-03T12:55:45;100843.91;;;23.18;25.77
22662;BME280;11497;52.222;21.246;2022-09-03T12:58:16;100831.66;;;23.16;25.80
22662;BME280;11497;52.222;21.246;2022-09-03T13:01:15;100826.19;;;23.17;26.20
22662;BME280;11497;52.222;21.246;2022-09-03T13:06:23;100844.41;;;23.12;25.85
22662;BME280;11497;52.222;21.246;2022-09-03T13:09:05;100837.97;;;23.26;25.36
22662;BME280;11497;52.222;21.246;2022-09-03T13:11:35;100828.28;;;23.25;25.29
22662;BME280;11497;52.222;21.246;2022-09-03T13:14:06;100821.22;;;23.24;25.29
22662;BME280;11497;52.222;21.246;2022-09-03T13:19:29;100817.09;;;23.20;25.57
22662;BME280;11497;52.222;21.246;2022-09-03T13:22:35;100815.88;;;23.13;25.17
22662;BME280;11497;52.222;21.246;2022-09-03T13:30:20;100807.88;;;23.13;25.53
22662;BME280;11497;52.222;21.246;2022-09-03T13:33:20;100801.06;;;22.98;25.40
22662;BME280;11497;52.222;21.246;2022-09-03T13:36:02;100796.47;;;23.11;25.81
22662;BME280;11497;52.222;21.246;2022-09-03T13:39:02;100796.00;;;22.95;25.60
22662;BME280;11497;52.222;21.246;2022-09-03T13:41:45;100793.78;;;23.00;25.72
22662;BME280;11497;52.222;21.246;2022-09-03T13:47:44;100795.47;;;23.01;25.54
22662;BME280;11497;52.222;21.246;2022-09-03T14:04:54;100799.84;;;23.02;25.51
22662;BME280;11497;52.222;21.246;2022-09-03T14:16:24;100791.00;;;22.90;25.96
22662;BME280;11497;52.222;21.246;2022-09-03T14:19:20;100790.91;;;22.92;25.31
22662;BME280;11497;52.222;21.246;2022-09-03T14:22:20;100790.66;;;22.95;25.41
22662;BME280;11497;52.222;21.246;2022-09-03T14:24:55;100795.13;;;22.94;24.94
22662;BME280;11497;52.222;21.246;2022-09-03T14:27:28;100795.13;;;22.83;25.23
22662;BME280;11497;52.222;21.246;2022-09-03T14:30:04;100797.91;;;22.81;25.36
22662;BME280;11497;52.222;21.246;2022-09-03T14:39:00;100783.59;;;22.82;25.63
22662;BME280;11497;52.222;21.246;2022-09-03T14:41:42;100788.19;;;22.80;25.96
22662;BME280;11497;52.222;21.246;2022-09-03T14:44:34;100789.81;;;22.59;26.56
22662;BME280;11497;52.222;21.246;2022-09-03T15:00:57;100789.09;;;22.46;26.83
22662;BME280;11497;52.222;21.246;2022-09-03T15:06:31;100784.22;;;22.40;26.61
22662;BME280;11497;52.222;21.246;2022-09-03T15:09:39;100790.72;;;22.24;26.57
22662;BME280;11497;52.222;21.246;2022-09-03T15:14:55;100781.75;;;22.26;26.84
22662;BME280;11497;52.222;21.246;2022-09-03T15:22:45;100786.78;;;22.06;27.19
22662;BME280;11497;52.222;21.246;2022-09-03T15:25:46;100781.81;;;21.89;27.56
22662;BME280;11497;52.222;21.246;2022-09-03T15:35:26;100794.34;;;21.76;27.37
22662;BME280;11497;52.222;21.246;2022-09-03T15:40:27;100788.38;;;21.48;28.04
22662;BME280;11497;52.222;21.246;2022-09-03T15:48:50;100789.69;;;21.30;28.06
22662;BME280;11497;52.222;21.246;2022-09-03T15:51:21;100790.13;;;21.24;28.23
22662;BME280;11497;52.222;21.246;2022-09-03T15:54:16;100786.41;;;21.14;28.70
22662;BME280;11497;52.222;21.246;2022-09-03T15:57:25;100779.72;;;21.08;28.59
22662;BME280;11497;52.222;21.246;2022-09-03T16:00:05;100793.03;;;20.96;28.73
22662;BME280;11497;52.222;21.246;2022-09-03T16:02:54;100789.28;;;20.85;29.24
22662;BME280;11497;52.222;21.246;2022-09-03T16:05:58;100787.50;;;20.73;30.01
22662;BME280;11497;52.222;21.246;2022-09-03T16:08:45;100796.53;;;20.58;30.82
22662;BME280;11497;52.222;21.246;2022-09-03T16:14:14;100799.06;;;20.47;30.66
22662;BME280;11497;52.222;21.246;2022-09-03T16:19:45;100797.34;;;20.33;30.63
22662;BME280;11497;52.222;21.246;2022-09-03T16:22:28;100793.34;;;20.13;30.90
22662;BME280;11497;52.222;21.246;2022-09-03T16:25:03;100799.25;;;20.04;31.72
22662;BME280;11497;52.222;21.246;2022-09-03T16:27:35;100801.75;;;19.93;31.84
22662;BME280;11497;52.222;21.246;2022-09-03T16:30:12;100795.31;;;19.97;31.52
22662;BME280;11497;52.222;21.246;2022-09-03T16:46:46;100806.66;;;19.17;33.29
22662;BME280;11497;52.222;21.246;2022-09-03T16:52:05;100800.41;;;18.89;34.16
22662;BME280;11497;52.222;21.246;2022-09-03T16:57:24;100803.19;;;18.58;34.77
22662;BME280;11497;52.222;21.246;2022-09-03T17:00:06;100801.53;;;18.41;35.24
22662;BME280;11497;52.222;21.246;2022-09-03T17:06:29;100809.44;;;17.97;36.28
22662;BME280;11497;52.222;21.246;2022-09-03T17:52:38;100844.28;;;15.12;45.71
22662;BME280;11497;52.222;21.246;2022-09-03T18:03:48;100860.66;;;14.59;48.79
22662;BME280;11497;52.222;21.246;2022-09-03T18:11:40;100870.97;;;14.21;50.98
22662;BME280;11497;52.222;21.246;2022-09-03T18:17:09;100866.63;;;13.98;52.01
22662;BME280;11497;52.222;21.246;2022-09-03T18:19:59;100870.34;;;13.93;52.92
22662;BME280;11497;52.222;21.246;2022-09-03T18:23:09;100862.41;;;13.94;53.66
22662;BME280;11497;52.222;21.246;2022-09-03T18:26:01;100863.25;;;13.95;54.09
22662;BME280;11497;52.222;21.246;2022-09-03T18:29:02;100868.91;;;13.86;54.42
22662;BME280;11497;52.222;21.246;2022-09-03T18:31:49;100864.13;;;13.74;55.11